sensor_id;sensor_type;location;lat;lon;timestamp;P1;durP1;ratioP1;P2;durP2;ratioP2
54921;SDS011;40824;45.116;21.296;2023-02-11T00:01:06;175.27;;;93.43;;
54921;SDS011;40824;45.116;21.296;2023-02-11T00:03:32;165.30;;;91.57;;
54921;SDS011;40824;45.116;21.296;2023-02-11T00:05:59;170.13;;;89.87;;
54921;SDS011;40824;45.116;21.296;2023-02-11T00:08:25;161.67;;;91.33;;
54921;SDS011;40824;45.116;21.296;2023-02-11T00:10:54;169.50;;;96.13;;
54921;SDS011;40824;45.116;21.296;2023-02-11T00:13:21;166.37;;;88.57;;
54921;SDS011;40824;45.116;21.296;2023-02-11T00:15:47;168.37;;;90.97;;
54921;SDS011;40824;45.116;21.296;2023-02-11T00:18:13;163.33;;;87.80;;
54921;SDS011;40824;45.116;21.296;2023-02-11T00:20:40;152.10;;;81.43;;
54921;SDS011;40824;45.116;21.296;2023-02-11T00:23:07;152.17;;;81.43;;
54921;SDS011;40824;45.116;21.296;2023-02-11T00:25:33;147.27;;;79.50;;
54921;SDS011;40824;45.116;21.296;2023-02-11T00:28:01;154.00;;;79.77;;
54921;SDS011;40824;45.116;21.296;2023-02-11T00:30:27;143.73;;;76.23;;
54921;SDS011;40824;45.116;21.296;2023-02-11T00:32:53;132.07;;;72.87;;
54921;SDS011;40824;45.116;21.296;2023-02-11T00:35:19;116.80;;;66.13;;
54921;SDS011;40824;45.116;21.296;2023-02-11T00:37:45;111.87;;;62.60;;
54921;SDS011;40824;45.116;21.296;2023-02-11T00:40:11;114.77;;;62.97;;
54921;SDS011;40824;45.116;21.296;2023-02-11T00:42:40;108.53;;;57.63;;
54921;SDS011;40824;45.116;21.296;2023-02-11T00:45:06;101.97;;;56.80;;
54921;SDS011;40824;45.116;21.296;2023-02-11T00:47:34;106.67;;;57.83;;
54921;SDS011;40824;45.116;21.296;2023-02-11T00:50:00;100.73;;;54.57;;
54921;SDS011;40824;45.116;21.296;2023-02-11T00:52:28;99.43;;;56.07;;
54921;SDS011;40824;45.116;21.296;2023-02-11T00:54:55;90.60;;;50.03;;
54921;SDS011;40824;45.116;21.296;2023-02-11T00:57:21;82.13;;;46.57;;
54921;SDS011;40824;45.116;21.296;2023-02-11T00:59:47;85.23;;;43.97;;
54921;SDS011;40824;45.116;21.296;2023-02-11T01:02:13;78.97;;;43.63;;
54921;SDS011;40824;45.116;21.296;2023-02-11T01:04:39;84.13;;;43.10;;
54921;SDS011;40824;45.116;21.296;2023-02-11T01:07:05;78.83;;;43.40;;
54921;SDS011;40824;45.116;21.296;2023-02-11T01:09:31;89.37;;;46.23;;
54921;SDS011;40824;45.116;21.296;2023-02-11T01:11:58;92.37;;;45.73;;
54921;SDS011;40824;45.116;21.296;2023-02-11T01:14:24;77.93;;;42.83;;
54921;SDS011;40824;45.116;21.296;2023-02-11T01:16:50;79.93;;;41.57;;
54921;SDS011;40824;45.116;21.296;2023-02-11T01:19:16;81.57;;;42.07;;
54921;SDS011;40824;45.116;21.296;2023-02-11T01:21:42;80.17;;;43.37;;
54921;SDS011;40824;45.116;21.296;2023-02-11T01:24:08;75.53;;;40.03;;
54921;SDS011;40824;45.116;21.296;2023-02-11T01:26:34;76.80;;;40.20;;
54921;SDS011;40824;45.116;21.296;2023-02-11T01:29:01;79.40;;;42.77;;
54921;SDS011;40824;45.116;21.296;2023-02-11T01:31:29;74.50;;;41.50;;
54921;SDS011;40824;45.116;21.296;2023-02-11T01:33:55;78.07;;;41.07;;
54921;SDS011;40824;45.116;21.296;2023-02-11T01:36:21;76.07;;;41.53;;
54921;SDS011;40824;45.116;21.296;2023-02-11T01:38:47;76.00;;;41.80;;
54921;SDS011;40824;45.116;21.296;2023-02-11T01:41:14;72.30;;;39.23;;
54921;SDS011;40824;45.116;21.296;2023-02-11T01:43:41;73.37;;;41.23;;
54921;SDS011;40824;45.116;21.296;2023-02-11T01:51:41;79.57;;;42.60;;
54921;SDS011;40824;45.116;21.296;2023-02-11T01:54:09;78.23;;;42.77;;
54921;SDS011;40824;45.116;21.296;2023-02-11T01:56:55;78.97;;;41.90;;
54921;SDS011;40824;45.116;21.296;2023-02-11T01:59:45;78.60;;;40.97;;
54921;SDS011;40824;45.116;21.296;2023-02-11T02:02:14;80.70;;;42.87;;
54921;SDS011;40824;45.116;21.296;2023-02-11T02:05:03;76.83;;;40.53;;
54921;SDS011;40824;45.116;21.296;2023-02-11T02:10:18;79.47;;;42.97;;
54921;SDS011;40824;45.116;21.296;2023-02-11T02:12:45;84.47;;;43.40;;
54921;SDS011;40824;45.116;21.296;2023-02-11T02:15:23;81.10;;;40.90;;
54921;SDS011;40824;45.116;21.296;2023-02-11T02:17:54;75.53;;;39.47;;
54921;SDS011;40824;45.116;21.296;2023-02-11T02:23:10;72.95;;;38.53;;
54921;SDS011;40824;45.116;21.296;2023-02-11T02:31:05;77.23;;;38.50;;
54921;SDS011;40824;45.116;21.296;2023-02-11T02:38:36;71.53;;;35.70;;
54921;SDS011;40824;45.116;21.296;2023-02-11T02:41:07;65.83;;;34.50;;
54921;SDS011;40824;45.116;21.296;2023-02-11T02:43:35;73.27;;;38.73;;
54921;SDS011;40824;45.116;21.296;2023-02-11T02:46:16;66.50;;;35.53;;
54921;SDS011;40824;45.116;21.296;2023-02-11T02:48:42;63.83;;;34.30;;
54921;SDS011;40824;45.116;21.296;2023-02-11T02:53:59;59.10;;;32.03;;
54921;SDS011;40824;45.116;21.296;2023-02-11T02:56:37;59.43;;;31.40;;
54921;SDS011;40824;45.116;21.296;2023-02-11T02:59:18;68.60;;;35.20;;
54921;SDS011;40824;45.116;21.296;2023-02-11T03:04:34;59.23;;;31.70;;
54921;SDS011;40824;45.116;21.296;2023-02-11T03:07:11;61.13;;;31.97;;
54921;SDS011;40824;45.116;21.296;2023-02-11T03:09:44;57.47;;;30.00;;
54921;SDS011;40824;45.116;21.296;2023-02-11T03:12:11;50.33;;;28.17;;
54921;SDS011;40824;45.116;21.296;2023-02-11T03:14:41;53.93;;;28.97;;
54921;SDS011;40824;45.116;21.296;2023-02-11T03:17:09;55.50;;;28.87;;
54921;SDS011;40824;45.116;21.296;2023-02-11T03:19:36;52.63;;;26.87;;
54921;SDS011;40824;45.116;21.296;2023-02-11T03:22:04;52.87;;;29.47;;
54921;SDS011;40824;45.116;21.296;2023-02-11T03:24:33;52.37;;;30.73;;
54921;SDS011;40824;45.116;21.296;2023-02-11T03:27:08;50.93;;;28.43;;
54921;SDS011;40824;45.116;21.296;2023-02-11T03:35:25;44.60;;;24.53;;
54921;SDS011;40824;45.116;21.296;2023-02-11T03:37:50;48.30;;;25.17;;
54921;SDS011;40824;45.116;21.296;2023-02-11T03:40:21;47.50;;;25.70;;
54921;SDS011;40824;45.116;21.296;2023-02-11T03:42:50;47.23;;;25.40;;
54921;SDS011;40824;45.116;21.296;2023-02-11T03:45:19;47.67;;;24.73;;
54921;SDS011;40824;45.116;21.296;2023-02-11T03:47:46;41.90;;;23.73;;
54921;SDS011;40824;45.116;21.296;2023-02-11T03:50:13;42.27;;;24.00;;
54921;SDS011;40824;45.116;21.296;2023-02-11T03:52:40;43.10;;;24.57;;
54921;SDS011;40824;45.116;21.296;2023-02-11T03:55:11;41.20;;;23.97;;
54921;SDS011;40824;45.116;21.296;2023-02-11T03:57:38;44.13;;;23.87;;
54921;SDS011;40824;45.116;21.296;2023-02-11T04:00:04;46.90;;;25.97;;
54921;SDS011;40824;45.116;21.296;2023-02-11T04:02:32;46.53;;;25.70;;
54921;SDS011;40824;45.116;21.296;2023-02-11T04:04:59;47.20;;;26.10;;
54921;SDS011;40824;45.116;21.296;2023-02-11T04:07:25;47.23;;;26.73;;
54921;SDS011;40824;45.116;21.296;2023-02-11T04:09:51;47.07;;;26.17;;
54921;SDS011;40824;45.116;21.296;2023-02-11T04:12:17;44.70;;;27.03;;
54921;SDS011;40824;45.116;21.296;2023-02-11T04:14:44;47.47;;;26.20;;
54921;SDS011;40824;45.116;21.296;2023-02-11T04:17:10;45.23;;;26.23;;
54921;SDS011;40824;45.116;21.296;2023-02-11T04:19:36;53.50;;;28.53;;
54921;SDS011;40824;45.116;21.296;2023-02-11T04:22:03;44.60;;;26.37;;
54921;SDS011;40824;45.116;21.296;2023-02-11T04:24:29;42.60;;;24.23;;
54921;SDS011;40824;45.116;21.296;2023-02-11T04:26:55;44.57;;;25.70;;
54921;SDS011;40824;45.116;21.296;2023-02-11T04:29:22;45.23;;;26.10;;
54921;SDS011;40824;45.116;21.296;2023-02-11T04:31:48;45.23;;;25.03;;
54921;SDS011;40824;45.116;21.296;2023-02-11T04:34:15;45.77;;;25.97;;
54921;SDS011;40824;45.116;21.296;2023-02-11T04:36:41;44.20;;;25.63;;
54921;SDS011;40824;45.116;21.296;2023-02-11T04:39:07;47.77;;;26.73;;
54921;SDS011;40824;45.116;21.296;2023-02-11T04:41:34;41.97;;;25.57;;
54921;SDS011;40824;45.116;21.296;2023-02-11T04:44:00;46.80;;;26.70;;
54921;SDS011;40824;45.116;21.296;2023-02-11T04:46:26;48.83;;;26.33;;
54921;SDS011;40824;45.116;21.296;2023-02-11T04:48:52;48.47;;;27.27;;
54921;SDS011;40824;45.116;21.296;2023-02-11T04:51:18;47.67;;;26.23;;
54921;SDS011;40824;45.116;21.296;2023-02-11T04:53:44;47.27;;;26.70;;
54921;SDS011;40824;45.116;21.296;2023-02-11T04:56:11;46.97;;;27.20;;
54921;SDS011;40824;45.116;21.296;2023-02-11T04:58:37;50.97;;;28.40;;
54921;SDS011;40824;45.116;21.296;2023-02-11T05:01:07;45.97;;;26.20;;
54921;SDS011;40824;45.116;21.296;2023-02-11T05:03:33;46.27;;;26.63;;
54921;SDS011;40824;45.116;21.296;2023-02-11T05:05:59;46.87;;;26.77;;
54921;SDS011;40824;45.116;21.296;2023-02-11T05:08:25;59.03;;;28.73;;
54921;SDS011;40824;45.116;21.296;2023-02-11T05:10:52;47.37;;;27.80;;
54921;SDS011;40824;45.116;21.296;2023-02-11T05:13:18;46.70;;;25.97;;
54921;SDS011;40824;45.116;21.296;2023-02-11T05:15:44;51.43;;;27.73;;
54921;SDS011;40824;45.116;21.296;2023-02-11T05:18:10;51.77;;;28.40;;
54921;SDS011;40824;45.116;21.296;2023-02-11T05:20:38;48.23;;;26.80;;
54921;SDS011;40824;45.116;21.296;2023-02-11T05:23:05;46.73;;;27.33;;
54921;SDS011;40824;45.116;21.296;2023-02-11T05:25:31;47.03;;;26.77;;
54921;SDS011;40824;45.116;21.296;2023-02-11T05:27:57;58.23;;;29.73;;
54921;SDS011;40824;45.116;21.296;2023-02-11T05:30:23;61.23;;;32.27;;
54921;SDS011;40824;45.116;21.296;2023-02-11T05:32:50;54.93;;;30.80;;
54921;SDS011;40824;45.116;21.296;2023-02-11T05:35:16;52.27;;;29.57;;
54921;SDS011;40824;45.116;21.296;2023-02-11T05:37:42;53.93;;;29.17;;
54921;SDS011;40824;45.116;21.296;2023-02-11T05:40:08;48.03;;;29.03;;
54921;SDS011;40824;45.116;21.296;2023-02-11T05:42:35;55.50;;;29.43;;
54921;SDS011;40824;45.116;21.296;2023-02-11T05:45:01;51.50;;;29.17;;
54921;SDS011;40824;45.116;21.296;2023-02-11T05:47:27;50.30;;;28.77;;
54921;SDS011;40824;45.116;21.296;2023-02-11T05:49:53;52.90;;;29.73;;
54921;SDS011;40824;45.116;21.296;2023-02-11T05:52:22;54.10;;;29.23;;
54921;SDS011;40824;45.116;21.296;2023-02-11T05:54:48;48.37;;;29.93;;
54921;SDS011;40824;45.116;21.296;2023-02-11T05:57:14;49.20;;;29.27;;
54921;SDS011;40824;45.116;21.296;2023-02-11T05:59:41;47.67;;;29.23;;
54921;SDS011;40824;45.116;21.296;2023-02-11T06:02:07;53.83;;;30.83;;
54921;SDS011;40824;45.116;21.296;2023-02-11T06:04:34;46.13;;;27.50;;
54921;SDS011;40824;45.116;21.296;2023-02-11T06:07:00;50.53;;;28.13;;
54921;SDS011;40824;45.116;21.296;2023-02-11T06:09:26;53.90;;;29.97;;
54921;SDS011;40824;45.116;21.296;2023-02-11T06:11:52;48.50;;;28.27;;
54921;SDS011;40824;45.116;21.296;2023-02-11T06:14:18;49.33;;;28.73;;
54921;SDS011;40824;45.116;21.296;2023-02-11T06:16:44;55.00;;;32.00;;
54921;SDS011;40824;45.116;21.296;2023-02-11T06:19:11;59.83;;;35.93;;
54921;SDS011;40824;45.116;21.296;2023-02-11T06:21:37;75.20;;;42.47;;
54921;SDS011;40824;45.116;21.296;2023-02-11T06:24:04;81.00;;;45.30;;
54921;SDS011;40824;45.116;21.296;2023-02-11T06:26:30;84.85;;;45.40;;
54921;SDS011;40824;45.116;21.296;2023-02-11T06:28:59;91.82;;;51.58;;
54921;SDS011;40824;45.116;21.296;2023-02-11T06:31:26;87.93;;;49.65;;
54921;SDS011;40824;45.116;21.296;2023-02-11T06:33:52;86.88;;;49.88;;
54921;SDS011;40824;45.116;21.296;2023-02-11T06:36:22;93.30;;;53.35;;
54921;SDS011;40824;45.116;21.296;2023-02-11T06:38:48;89.97;;;50.63;;
54921;SDS011;40824;45.116;21.296;2023-02-11T06:41:15;90.53;;;54.13;;
54921;SDS011;40824;45.116;21.296;2023-02-11T06:43:41;89.05;;;52.08;;
54921;SDS011;40824;45.116;21.296;2023-02-11T06:46:08;98.68;;;55.63;;
54921;SDS011;40824;45.116;21.296;2023-02-11T06:48:34;96.15;;;57.20;;
54921;SDS011;40824;45.116;21.296;2023-02-11T06:51:01;94.68;;;56.40;;
54921;SDS011;40824;45.116;21.296;2023-02-11T06:53:28;98.53;;;60.78;;
54921;SDS011;40824;45.116;21.296;2023-02-11T06:55:55;92.30;;;57.90;;
54921;SDS011;40824;45.116;21.296;2023-02-11T06:58:21;106.45;;;60.60;;
54921;SDS011;40824;45.116;21.296;2023-02-11T07:00:47;102.20;;;59.88;;
54921;SDS011;40824;45.116;21.296;2023-02-11T07:03:13;101.28;;;60.08;;
54921;SDS011;40824;45.116;21.296;2023-02-11T07:05:46;99.82;;;58.67;;
54921;SDS011;40824;45.116;21.296;2023-02-11T07:08:12;98.72;;;60.55;;
54921;SDS011;40824;45.116;21.296;2023-02-11T07:10:38;103.40;;;60.58;;
54921;SDS011;40824;45.116;21.296;2023-02-11T07:13:05;101.55;;;60.67;;
54921;SDS011;40824;45.116;21.296;2023-02-11T07:15:31;103.30;;;60.75;;
54921;SDS011;40824;45.116;21.296;2023-02-11T07:17:57;99.70;;;59.47;;
54921;SDS011;40824;45.116;21.296;2023-02-11T07:20:24;98.82;;;61.38;;
54921;SDS011;40824;45.116;21.296;2023-02-11T07:22:50;109.47;;;62.05;;
54921;SDS011;40824;45.116;21.296;2023-02-11T07:25:16;93.72;;;59.15;;
54921;SDS011;40824;45.116;21.296;2023-02-11T07:27:42;99.18;;;60.15;;
54921;SDS011;40824;45.116;21.296;2023-02-11T07:30:08;99.53;;;60.72;;
54921;SDS011;40824;45.116;21.296;2023-02-11T07:32:35;98.65;;;60.33;;
54921;SDS011;40824;45.116;21.296;2023-02-11T07:35:01;92.47;;;57.95;;
54921;SDS011;40824;45.116;21.296;2023-02-11T07:37:27;102.70;;;62.05;;
54921;SDS011;40824;45.116;21.296;2023-02-11T07:39:53;94.35;;;59.47;;
54921;SDS011;40824;45.116;21.296;2023-02-11T07:42:19;98.55;;;62.45;;
54921;SDS011;40824;45.116;21.296;2023-02-11T07:44:46;94.13;;;58.58;;
54921;SDS011;40824;45.116;21.296;2023-02-11T07:47:12;97.38;;;56.65;;
54921;SDS011;40824;45.116;21.296;2023-02-11T07:49:38;99.30;;;59.55;;
54921;SDS011;40824;45.116;21.296;2023-02-11T07:52:04;94.32;;;59.67;;
54921;SDS011;40824;45.116;21.296;2023-02-11T07:54:30;92.75;;;58.15;;
54921;SDS011;40824;45.116;21.296;2023-02-11T07:56:56;95.95;;;58.70;;
54921;SDS011;40824;45.116;21.296;2023-02-11T07:59:22;94.22;;;60.10;;
54921;SDS011;40824;45.116;21.296;2023-02-11T08:01:49;93.65;;;57.70;;
54921;SDS011;40824;45.116;21.296;2023-02-11T08:04:15;89.07;;;56.60;;
54921;SDS011;40824;45.116;21.296;2023-02-11T08:06:42;91.47;;;55.05;;
54921;SDS011;40824;45.116;21.296;2023-02-11T08:09:09;89.40;;;55.45;;
54921;SDS011;40824;45.116;21.296;2023-02-11T08:11:36;83.15;;;52.30;;
54921;SDS011;40824;45.116;21.296;2023-02-11T08:14:02;81.28;;;51.38;;
54921;SDS011;40824;45.116;21.296;2023-02-11T08:16:29;82.13;;;52.13;;
54921;SDS011;40824;45.116;21.296;2023-02-11T08:18:59;82.60;;;51.28;;
54921;SDS011;40824;45.116;21.296;2023-02-11T08:21:25;86.43;;;52.30;;
54921;SDS011;40824;45.116;21.296;2023-02-11T08:23:53;77.25;;;49.25;;
54921;SDS011;40824;45.116;21.296;2023-02-11T08:26:21;85.18;;;50.55;;
54921;SDS011;40824;45.116;21.296;2023-02-11T08:28:48;83.72;;;48.65;;
54921;SDS011;40824;45.116;21.296;2023-02-11T08:31:16;86.00;;;50.20;;
54921;SDS011;40824;45.116;21.296;2023-02-11T08:33:42;79.30;;;50.72;;
54921;SDS011;40824;45.116;21.296;2023-02-11T08:36:09;74.28;;;50.35;;
54921;SDS011;40824;45.116;21.296;2023-02-11T08:38:35;70.43;;;50.05;;
54921;SDS011;40824;45.116;21.296;2023-02-11T08:41:01;66.80;;;50.83;;
54921;SDS011;40824;45.116;21.296;2023-02-11T08:43:27;73.70;;;53.15;;
54921;SDS011;40824;45.116;21.296;2023-02-11T08:45:53;68.78;;;50.53;;
54921;SDS011;40824;45.116;21.296;2023-02-11T08:48:19;62.80;;;49.45;;
54921;SDS011;40824;45.116;21.296;2023-02-11T08:50:45;62.55;;;48.28;;
54921;SDS011;40824;45.116;21.296;2023-02-11T08:53:11;65.00;;;51.15;;
54921;SDS011;40824;45.116;21.296;2023-02-11T08:55:38;63.88;;;48.80;;
54921;SDS011;40824;45.116;21.296;2023-02-11T08:58:04;64.57;;;50.50;;
54921;SDS011;40824;45.116;21.296;2023-02-11T09:00:30;68.40;;;50.78;;
54921;SDS011;40824;45.116;21.296;2023-02-11T09:02:56;62.53;;;50.03;;
54921;SDS011;40824;45.116;21.296;2023-02-11T09:05:22;65.78;;;54.80;;
54921;SDS011;40824;45.116;21.296;2023-02-11T09:07:48;62.63;;;48.53;;
54921;SDS011;40824;45.116;21.296;2023-02-11T09:10:14;60.83;;;49.70;;
54921;SDS011;40824;45.116;21.296;2023-02-11T09:12:40;63.95;;;50.17;;
54921;SDS011;40824;45.116;21.296;2023-02-11T09:15:06;60.92;;;48.83;;
54921;SDS011;40824;45.116;21.296;2023-02-11T09:17:32;61.83;;;49.53;;
54921;SDS011;40824;45.116;21.296;2023-02-11T09:19:58;60.03;;;49.50;;
54921;SDS011;40824;45.116;21.296;2023-02-11T09:22:24;57.10;;;46.88;;
54921;SDS011;40824;45.116;21.296;2023-02-11T09:24:50;60.47;;;48.42;;
54921;SDS011;40824;45.116;21.296;2023-02-11T09:27:16;56.47;;;47.10;;
54921;SDS011;40824;45.116;21.296;2023-02-11T09:29:42;55.20;;;47.35;;
54921;SDS011;40824;45.116;21.296;2023-02-11T09:32:08;54.15;;;46.03;;
54921;SDS011;40824;45.116;21.296;2023-02-11T09:34:34;53.38;;;45.53;;
54921;SDS011;40824;45.116;21.296;2023-02-11T09:37:00;52.78;;;44.75;;
54921;SDS011;40824;45.116;21.296;2023-02-11T09:39:27;54.95;;;45.75;;
54921;SDS011;40824;45.116;21.296;2023-02-11T09:44:21;56.72;;;46.58;;
54921;SDS011;40824;45.116;21.296;2023-02-11T09:46:54;57.00;;;47.55;;
54921;SDS011;40824;45.116;21.296;2023-02-11T09:49:23;54.00;;;45.22;;
54921;SDS011;40824;45.116;21.296;2023-02-11T09:51:52;47.33;;;41.58;;
54921;SDS011;40824;45.116;21.296;2023-02-11T09:56:52;48.58;;;42.30;;
54921;SDS011;40824;45.116;21.296;2023-02-11T09:59:18;50.08;;;41.95;;
54921;SDS011;40824;45.116;21.296;2023-02-11T10:09:17;51.65;;;44.70;;
54921;SDS011;40824;45.116;21.296;2023-02-11T10:20:19;49.03;;;41.92;;
54921;SDS011;40824;45.116;21.296;2023-02-11T10:22:40;45.42;;;39.05;;
54921;SDS011;40824;45.116;21.296;2023-02-11T10:25:16;47.55;;;39.53;;
54921;SDS011;40824;45.116;21.296;2023-02-11T10:27:43;47.40;;;39.70;;
54921;SDS011;40824;45.116;21.296;2023-02-11T10:30:15;46.30;;;39.08;;
54921;SDS011;40824;45.116;21.296;2023-02-11T10:33:03;41.72;;;36.38;;
54921;SDS011;40824;45.116;21.296;2023-02-11T10:35:39;38.08;;;32.75;;
54921;SDS011;40824;45.116;21.296;2023-02-11T10:38:07;39.47;;;32.95;;
54921;SDS011;40824;45.116;21.296;2023-02-11T10:40:33;43.22;;;35.08;;
54921;SDS011;40824;45.116;21.296;2023-02-11T10:43:00;41.40;;;36.85;;
54921;SDS011;40824;45.116;21.296;2023-02-11T10:45:46;41.47;;;36.85;;
54921;SDS011;40824;45.116;21.296;2023-02-11T10:53:49;41.95;;;37.35;;
54921;SDS011;40824;45.116;21.296;2023-02-11T10:56:20;45.92;;;40.97;;
54921;SDS011;40824;45.116;21.296;2023-02-11T11:01:20;48.53;;;39.80;;
54921;SDS011;40824;45.116;21.296;2023-02-11T11:03:47;47.97;;;41.78;;
54921;SDS011;40824;45.116;21.296;2023-02-11T11:06:13;44.03;;;38.78;;
54921;SDS011;40824;45.116;21.296;2023-02-11T11:08:47;47.28;;;42.20;;
54921;SDS011;40824;45.116;21.296;2023-02-11T11:13:40;44.83;;;38.53;;
54921;SDS011;40824;45.116;21.296;2023-02-11T11:18:33;50.40;;;44.83;;
54921;SDS011;40824;45.116;21.296;2023-02-11T11:21:00;53.72;;;44.55;;
54921;SDS011;40824;45.116;21.296;2023-02-11T11:23:30;66.82;;;52.47;;
54921;SDS011;40824;45.116;21.296;2023-02-11T11:28:25;51.60;;;45.85;;
54921;SDS011;40824;45.116;21.296;2023-02-11T11:30:53;51.92;;;44.20;;
54921;SDS011;40824;45.116;21.296;2023-02-11T11:33:23;50.53;;;43.45;;
54921;SDS011;40824;45.116;21.296;2023-02-11T11:35:54;49.50;;;44.13;;
54921;SDS011;40824;45.116;21.296;2023-02-11T11:38:22;53.47;;;46.35;;
54921;SDS011;40824;45.116;21.296;2023-02-11T11:41:11;48.33;;;43.13;;
54921;SDS011;40824;45.116;21.296;2023-02-11T11:43:34;45.67;;;40.67;;
54921;SDS011;40824;45.116;21.296;2023-02-11T11:46:01;51.13;;;44.33;;
54921;SDS011;40824;45.116;21.296;2023-02-11T11:48:31;53.42;;;45.72;;
54921;SDS011;40824;45.116;21.296;2023-02-11T11:51:00;52.05;;;45.20;;
54921;SDS011;40824;45.116;21.296;2023-02-11T11:53:32;52.97;;;45.22;;
54921;SDS011;40824;45.116;21.296;2023-02-11T11:56:05;46.10;;;41.05;;
54921;SDS011;40824;45.116;21.296;2023-02-11T11:58:32;50.28;;;42.92;;
54921;SDS011;40824;45.116;21.296;2023-02-11T12:01:23;50.75;;;44.00;;
54921;SDS011;40824;45.116;21.296;2023-02-11T12:09:18;49.90;;;42.00;;
54921;SDS011;40824;45.116;21.296;2023-02-11T12:12:06;45.97;;;39.97;;
54921;SDS011;40824;45.116;21.296;2023-02-11T12:17:49;41.20;;;35.85;;
54921;SDS011;40824;45.116;21.296;2023-02-11T12:28:52;42.15;;;34.60;;
54921;SDS011;40824;45.116;21.296;2023-02-11T12:55:23;42.45;;;34.13;;
54921;SDS011;40824;45.116;21.296;2023-02-11T12:57:50;44.38;;;34.15;;
54921;SDS011;40824;45.116;21.296;2023-02-11T13:00:26;42.55;;;35.03;;
54921;SDS011;40824;45.116;21.296;2023-02-11T13:07:46;44.78;;;36.22;;
54921;SDS011;40824;45.116;21.296;2023-02-11T13:12:50;45.25;;;36.08;;
54921;SDS011;40824;45.116;21.296;2023-02-11T13:15:36;50.20;;;38.58;;
54921;SDS011;40824;45.116;21.296;2023-02-11T13:18:24;50.33;;;39.58;;
54921;SDS011;40824;45.116;21.296;2023-02-11T13:23:30;51.78;;;39.80;;
54921;SDS011;40824;45.116;21.296;2023-02-11T13:26:20;48.63;;;38.95;;
54921;SDS011;40824;45.116;21.296;2023-02-11T13:28:48;53.17;;;40.42;;
54921;SDS011;40824;45.116;21.296;2023-02-11T13:31:15;55.45;;;42.10;;
54921;SDS011;40824;45.116;21.296;2023-02-11T13:33:44;60.92;;;42.35;;
54921;SDS011;40824;45.116;21.296;2023-02-11T13:36:15;57.58;;;42.67;;
54921;SDS011;40824;45.116;21.296;2023-02-11T13:38:50;50.97;;;37.97;;
54921;SDS011;40824;45.116;21.296;2023-02-11T13:44:03;58.78;;;41.17;;
54921;SDS011;40824;45.116;21.296;2023-02-11T13:46:46;61.30;;;42.03;;
54921;SDS011;40824;45.116;21.296;2023-02-11T13:49:23;68.95;;;43.83;;
54921;SDS011;40824;45.116;21.296;2023-02-11T13:51:50;65.07;;;43.58;;
54921;SDS011;40824;45.116;21.296;2023-02-11T13:54:22;58.42;;;42.15;;
54921;SDS011;40824;45.116;21.296;2023-02-11T13:59:49;51.90;;;37.38;;
54921;SDS011;40824;45.116;21.296;2023-02-11T14:08:22;55.45;;;37.40;;
54921;SDS011;40824;45.116;21.296;2023-02-11T14:16:21;55.28;;;38.55;;
54921;SDS011;40824;45.116;21.296;2023-02-11T14:23:52;54.15;;;38.45;;
54921;SDS011;40824;45.116;21.296;2023-02-11T14:29:26;60.30;;;39.72;;
54921;SDS011;40824;45.116;21.296;2023-02-11T14:32:08;60.78;;;40.25;;
54921;SDS011;40824;45.116;21.296;2023-02-11T14:40:33;61.55;;;39.67;;
54921;SDS011;40824;45.116;21.296;2023-02-11T14:43:11;65.72;;;40.88;;
54921;SDS011;40824;45.116;21.296;2023-02-11T14:45:42;59.85;;;38.67;;
54921;SDS011;40824;45.116;21.296;2023-02-11T14:48:19;57.33;;;39.10;;
54921;SDS011;40824;45.116;21.296;2023-02-11T14:50:50;72.28;;;45.72;;
54921;SDS011;40824;45.116;21.296;2023-02-11T14:53:22;66.63;;;44.53;;
54921;SDS011;40824;45.116;21.296;2023-02-11T14:55:50;91.28;;;61.30;;
54921;SDS011;40824;45.116;21.296;2023-02-11T15:06:05;150.57;;;99.80;;
54921;SDS011;40824;45.116;21.296;2023-02-11T15:08:39;88.93;;;60.90;;
54921;SDS011;40824;45.116;21.296;2023-02-11T15:11:11;76.57;;;55.50;;
54921;SDS011;40824;45.116;21.296;2023-02-11T15:13:39;77.38;;;49.17;;
54921;SDS011;40824;45.116;21.296;2023-02-11T15:16:13;111.50;;;72.93;;
54921;SDS011;40824;45.116;21.296;2023-02-11T15:18:44;100.75;;;64.80;;
54921;SDS011;40824;45.116;21.296;2023-02-11T15:21:10;172.88;;;123.57;;
54921;SDS011;40824;45.116;21.296;2023-02-11T15:23:36;97.15;;;66.25;;
54921;SDS011;40824;45.116;21.296;2023-02-11T15:26:13;89.93;;;59.78;;
54921;SDS011;40824;45.116;21.296;2023-02-11T15:28:43;73.95;;;47.65;;
54921;SDS011;40824;45.116;21.296;2023-02-11T15:31:16;73.18;;;48.03;;
54921;SDS011;40824;45.116;21.296;2023-02-11T15:33:42;72.85;;;46.78;;
54921;SDS011;40824;45.116;21.296;2023-02-11T15:36:09;73.70;;;49.33;;
54921;SDS011;40824;45.116;21.296;2023-02-11T15:38:35;72.90;;;48.08;;
54921;SDS011;40824;45.116;21.296;2023-02-11T15:41:03;82.15;;;51.70;;
54921;SDS011;40824;45.116;21.296;2023-02-11T15:43:41;91.13;;;59.92;;
54921;SDS011;40824;45.116;21.296;2023-02-11T15:46:08;89.95;;;55.22;;
54921;SDS011;40824;45.116;21.296;2023-02-11T15:48:45;91.40;;;60.67;;
54921;SDS011;40824;45.116;21.296;2023-02-11T15:51:26;101.13;;;64.75;;
54921;SDS011;40824;45.116;21.296;2023-02-11T15:53:58;98.18;;;61.72;;
54921;SDS011;40824;45.116;21.296;2023-02-11T15:56:28;146.98;;;97.78;;
54921;SDS011;40824;45.116;21.296;2023-02-11T15:58:57;143.73;;;103.80;;
54921;SDS011;40824;45.116;21.296;2023-02-11T16:01:28;149.70;;;99.60;;
54921;SDS011;40824;45.116;21.296;2023-02-11T16:03:54;115.75;;;75.35;;
54921;SDS011;40824;45.116;21.296;2023-02-11T16:06:22;115.07;;;73.55;;
54921;SDS011;40824;45.116;21.296;2023-02-11T16:08:58;95.93;;;66.82;;
54921;SDS011;40824;45.116;21.296;2023-02-11T16:11:26;100.95;;;65.85;;
54921;SDS011;40824;45.116;21.296;2023-02-11T16:13:54;94.85;;;61.88;;
54921;SDS011;40824;45.116;21.296;2023-02-11T16:16:23;93.90;;;58.17;;
54921;SDS011;40824;45.116;21.296;2023-02-11T16:18:51;103.78;;;66.63;;
54921;SDS011;40824;45.116;21.296;2023-02-11T16:21:18;105.40;;;61.50;;
54921;SDS011;40824;45.116;21.296;2023-02-11T16:23:49;119.53;;;76.40;;
54921;SDS011;40824;45.116;21.296;2023-02-11T16:26:32;108.90;;;68.85;;
54921;SDS011;40824;45.116;21.296;2023-02-11T16:29:03;122.75;;;74.63;;
54921;SDS011;40824;45.116;21.296;2023-02-11T16:31:33;154.27;;;84.40;;
54921;SDS011;40824;45.116;21.296;2023-02-11T16:33:59;132.48;;;77.40;;
54921;SDS011;40824;45.116;21.296;2023-02-11T16:36:25;173.68;;;101.45;;
54921;SDS011;40824;45.116;21.296;2023-02-11T16:38:51;219.13;;;130.80;;
54921;SDS011;40824;45.116;21.296;2023-02-11T16:41:17;257.02;;;152.30;;
54921;SDS011;40824;45.116;21.296;2023-02-11T16:43:43;216.38;;;134.07;;
54921;SDS011;40824;45.116;21.296;2023-02-11T16:46:12;301.40;;;174.32;;
54921;SDS011;40824;45.116;21.296;2023-02-11T16:48:39;277.92;;;164.40;;
54921;SDS011;40824;45.116;21.296;2023-02-11T16:51:05;283.50;;;161.02;;
54921;SDS011;40824;45.116;21.296;2023-02-11T16:53:33;306.92;;;181.95;;